createdAt,value
2019-05-19T00:02:26.526Z,6.40
2019-05-19T00:04:55.425Z,6.63
2019-05-19T00:07:24.315Z,7.23
2019-05-19T00:09:53.158Z,6.70
2019-05-19T00:12:22.087Z,6.67
2019-05-19T00:14:50.939Z,7.03
2019-05-19T00:17:19.768Z,7.63
2019-05-19T00:19:48.683Z,6.77
2019-05-19T00:22:17.527Z,6.30
2019-05-19T00:24:46.370Z,6.77
2019-05-19T00:27:15.376Z,7.27
2019-05-19T00:29:44.295Z,7.03
2019-05-19T00:32:13.058Z,7.17
2019-05-19T00:34:41.941Z,6.90
2019-05-19T00:37:10.816Z,7.03
2019-05-19T00:39:39.643Z,6.37
2019-05-19T00:42:08.622Z,7.13
2019-05-19T00:44:37.458Z,7.33
2019-05-19T00:47:06.252Z,5.97
2019-05-19T00:49:41.354Z,6.17
2019-05-19T00:52:06.318Z,6.73
2019-05-19T00:54:35.152Z,7.07
2019-05-19T00:57:04.765Z,6.20
2019-05-19T00:59:34.400Z,6.90
2019-05-19T01:02:03.238Z,7.23
2019-05-19T01:04:32.121Z,7.50
2019-05-19T01:07:01.012Z,7.37
2019-05-19T01:09:29.885Z,7.20
2019-05-19T01:11:59.097Z,6.70
2019-05-19T01:14:27.973Z,7.00
2019-05-19T01:16:56.841Z,7.87
2019-05-19T01:19:25.796Z,7.93
2019-05-19T01:21:55.858Z,7.87
2019-05-19T01:24:24.756Z,6.73
2019-05-19T01:26:53.682Z,7.83
2019-05-19T01:29:22.581Z,7.07
2019-05-19T01:31:51.491Z,7.27
2019-05-19T01:34:20.295Z,6.77
2019-05-19T01:36:49.201Z,7.37
2019-05-19T01:39:18.097Z,7.67
2019-05-19T01:41:46.985Z,6.83
2019-05-19T01:44:15.869Z,7.57
2019-05-19T01:46:44.619Z,7.17
2019-05-19T01:49:13.562Z,7.50
2019-05-19T01:51:42.414Z,7.97
2019-05-19T01:54:11.268Z,7.73
2019-05-19T01:56:40.161Z,7.60
2019-05-19T01:59:09.023Z,6.73
2019-05-19T02:01:37.903Z,7.40
2019-05-19T02:04:06.817Z,7.97
2019-05-19T02:06:35.666Z,7.17
2019-05-19T02:09:06.444Z,7.53
2019-05-19T02:11:35.394Z,7.67
2019-05-19T02:14:04.616Z,7.97
2019-05-19T02:16:33.524Z,8.13
2019-05-19T02:19:02.610Z,7.67
2019-05-19T02:21:31.631Z,7.93
2019-05-19T02:24:00.487Z,7.17
2019-05-19T02:26:29.383Z,7.73
2019-05-19T02:28:58.217Z,8.60
2019-05-19T02:31:27.015Z,8.10
2019-05-19T02:33:55.945Z,7.67
2019-05-19T02:36:24.802Z,7.50
2019-05-19T02:38:53.641Z,8.40
2019-05-19T02:41:22.826Z,7.83
2019-05-19T02:43:53.162Z,7.13
2019-05-19T02:46:22.825Z,7.60
2019-05-19T02:48:52.727Z,7.67
2019-05-19T02:51:22.760Z,7.97
2019-05-19T02:53:52.136Z,7.90
2019-05-19T02:56:22.330Z,7.93
2019-05-19T02:58:52.696Z,8.60
2019-05-19T03:01:21.551Z,8.33
2019-05-19T03:03:50.396Z,8.33
2019-05-19T03:06:19.217Z,8.23
2019-05-19T03:08:47.980Z,8.57
2019-05-19T03:11:16.880Z,7.80
2019-05-19T03:13:45.732Z,8.67
2019-05-19T03:16:14.598Z,8.97
2019-05-19T03:18:44.279Z,7.47
2019-05-19T03:21:13.115Z,8.03
2019-05-19T03:23:41.982Z,7.37
2019-05-19T03:26:10.915Z,8.20
2019-05-19T03:28:39.774Z,8.37
2019-05-19T03:31:28.708Z,8.57
2019-05-19T03:33:58.640Z,7.73
2019-05-19T03:36:27.490Z,8.83
2019-05-19T03:38:56.377Z,8.47
2019-05-19T03:41:25.229Z,9.03
2019-05-19T03:43:54.058Z,8.33
2019-05-19T03:46:22.984Z,8.50
2019-05-19T03:48:51.796Z,8.87
2019-05-19T03:51:30.657Z,9.53
2019-05-19T03:53:51.014Z,8.00
2019-05-19T03:56:19.834Z,9.00
2019-05-19T03:58:48.695Z,8.63
2019-05-19T04:01:17.697Z,8.53
2019-05-19T04:03:46.470Z,8.20
2019-05-19T04:06:15.305Z,8.67
2019-05-19T04:08:44.184Z,8.87
2019-05-19T04:11:13.033Z,7.97
2019-05-19T04:13:41.909Z,9.63
2019-05-19T04:16:10.797Z,9.63
2019-05-19T04:18:39.649Z,9.33
2019-05-19T04:21:08.410Z,8.77
2019-05-19T04:23:37.302Z,7.77
2019-05-19T04:26:06.145Z,9.27
2019-05-19T04:28:34.997Z,8.27
2019-05-19T04:31:03.926Z,7.97
2019-05-19T04:33:32.714Z,9.13
2019-05-19T04:36:01.586Z,8.90
2019-05-19T04:38:30.418Z,8.50
2019-05-19T04:40:59.255Z,8.40
2019-05-19T04:43:28.190Z,8.50
2019-05-19T04:45:57.101Z,7.70
2019-05-19T04:48:25.955Z,8.83
2019-05-19T04:50:54.780Z,9.03
2019-05-19T04:53:23.658Z,8.17
2019-05-19T04:55:52.519Z,7.93
2019-05-19T04:58:21.377Z,8.37
2019-05-19T05:00:50.382Z,8.27
2019-05-19T05:03:19.123Z,8.77
2019-05-19T05:05:47.944Z,8.23
2019-05-19T05:08:28.587Z,9.40
2019-05-19T05:10:47.366Z,11.17
2019-05-19T05:13:16.098Z,11.47
2019-05-19T05:15:44.982Z,11.57
2019-05-19T05:18:13.803Z,9.53
2019-05-19T05:20:42.631Z,11.17
2019-05-19T05:23:11.502Z,10.07
2019-05-19T05:25:40.276Z,15.23
2019-05-19T05:28:09.118Z,14.97
2019-05-19T05:30:38.029Z,14.60
2019-05-19T05:33:06.917Z,14.93
2019-05-19T05:35:35.786Z,11.90
2019-05-19T05:38:04.611Z,9.70
2019-05-19T05:40:33.375Z,11.10
2019-05-19T05:43:02.231Z,9.23
2019-05-19T05:45:31.184Z,10.13
2019-05-19T05:48:00.058Z,9.23
2019-05-19T05:50:28.981Z,9.73
2019-05-19T05:52:57.897Z,9.13
2019-05-19T05:55:26.733Z,9.17
2019-05-19T05:57:56.823Z,9.40
2019-05-19T06:00:28.678Z,8.87
2019-05-19T06:02:58.112Z,9.97
2019-05-19T06:05:26.938Z,9.43
2019-05-19T06:07:55.862Z,8.27
2019-05-19T06:10:24.648Z,10.27
2019-05-19T06:12:53.501Z,8.97
2019-05-19T06:15:22.397Z,9.57
2019-05-19T06:17:54.192Z,8.77
2019-05-19T06:20:22.928Z,7.77
2019-05-19T06:22:56.890Z,8.57
2019-05-19T06:25:23.126Z,8.73
2019-05-19T06:27:51.958Z,7.83
2019-05-19T06:30:20.881Z,8.50
2019-05-19T06:32:51.290Z,8.03
2019-05-19T06:35:20.228Z,7.70
2019-05-19T06:37:49.161Z,7.47
2019-05-19T06:40:18.307Z,8.47
2019-05-19T06:42:47.178Z,7.77
2019-05-19T06:45:16.564Z,7.70
2019-05-19T06:47:45.385Z,8.33
2019-05-19T06:50:14.733Z,7.90
2019-05-19T06:52:43.569Z,7.50
2019-05-19T06:55:13.301Z,7.43
2019-05-19T06:57:42.109Z,8.47
2019-05-19T07:00:11.296Z,7.63
2019-05-19T07:02:40.160Z,7.10
2019-05-19T07:05:09.620Z,7.60
2019-05-19T07:07:38.522Z,7.33
2019-05-19T07:10:08.241Z,6.80
2019-05-19T07:12:37.054Z,6.87
2019-05-19T07:15:07.106Z,6.50
2019-05-19T07:17:35.885Z,7.13
2019-05-19T07:20:05.618Z,6.93
2019-05-19T07:22:37.446Z,7.30
2019-05-19T07:25:06.843Z,6.50
2019-05-19T07:27:35.695Z,6.40
2019-05-19T07:30:06.007Z,6.63
2019-05-19T07:32:34.860Z,6.80
2019-05-19T07:35:04.195Z,6.57
2019-05-19T07:37:33.124Z,6.47
2019-05-19T07:40:01.960Z,6.63
2019-05-19T07:42:30.812Z,6.57
2019-05-19T07:44:59.606Z,7.57
2019-05-19T07:47:28.535Z,7.63
2019-05-19T07:49:57.369Z,6.67
2019-05-19T07:52:26.237Z,6.27
2019-05-19T07:54:55.086Z,6.97
2019-05-19T07:57:23.941Z,6.97
2019-05-19T07:59:52.751Z,7.37
2019-05-19T08:02:21.611Z,6.57
2019-05-19T08:04:50.425Z,6.10
2019-05-19T08:07:19.373Z,5.80
2019-05-19T08:09:48.224Z,6.03
2019-05-19T08:12:17.045Z,5.80
2019-05-19T08:14:45.929Z,6.33
2019-05-19T08:17:14.795Z,5.80
2019-05-19T08:19:43.584Z,4.57
2019-05-19T08:22:12.488Z,5.53
2019-05-19T08:24:41.225Z,5.60
2019-05-19T08:27:10.098Z,5.43
2019-05-19T08:29:38.990Z,6.53
2019-05-19T08:32:07.836Z,5.27
2019-05-19T08:34:36.665Z,5.00
2019-05-19T08:37:05.549Z,4.77
2019-05-19T08:39:34.386Z,4.90
2019-05-19T08:42:03.175Z,5.47
2019-05-19T08:44:32.046Z,5.07
2019-05-19T08:47:00.808Z,4.43
2019-05-19T08:49:29.915Z,5.43
2019-05-19T08:51:58.764Z,4.83
2019-05-19T08:54:27.618Z,5.30
2019-05-19T08:56:56.506Z,5.13
2019-05-19T08:59:25.304Z,4.63
2019-05-19T09:01:54.125Z,4.63
2019-05-19T09:04:22.955Z,5.20
2019-05-19T09:06:51.828Z,5.33
2019-05-19T09:09:20.717Z,4.63
2019-05-19T09:11:49.601Z,4.63
2019-05-19T09:14:18.438Z,5.00
2019-05-19T09:16:47.294Z,4.53
2019-05-19T09:19:16.124Z,4.87
2019-05-19T09:21:45.040Z,4.63
2019-05-19T09:24:13.822Z,4.53
2019-05-19T09:26:42.727Z,5.10
2019-05-19T09:29:11.540Z,4.30
2019-05-19T09:31:41.565Z,5.60
2019-05-19T09:34:10.749Z,5.43
2019-05-19T09:36:39.667Z,4.03
2019-05-19T09:39:08.429Z,4.10
2019-05-19T09:41:37.242Z,5.10
2019-05-19T09:44:06.055Z,3.47
2019-05-19T09:46:34.900Z,3.90
2019-05-19T09:49:21.442Z,4.13
2019-05-19T09:51:50.294Z,4.33
2019-05-19T09:54:19.534Z,4.20
2019-05-19T09:56:48.464Z,3.90
2019-05-19T09:59:17.226Z,3.93
2019-05-19T10:01:46.075Z,4.03
2019-05-19T10:04:14.864Z,3.73
2019-05-19T10:06:43.841Z,3.80
2019-05-19T10:09:19.200Z,4.00
2019-05-19T10:11:51.384Z,4.27
2019-05-19T10:14:20.179Z,3.80
2019-05-19T10:16:49.656Z,4.23
2019-05-19T10:19:18.587Z,3.87
2019-05-19T10:21:47.513Z,3.83
2019-05-19T10:24:16.355Z,3.93
2019-05-19T10:26:45.199Z,4.30
2019-05-19T10:29:14.177Z,4.27
2019-05-19T10:31:43.057Z,4.17
2019-05-19T10:34:11.796Z,4.20
2019-05-19T10:36:40.623Z,3.93
2019-05-19T10:39:09.555Z,4.63
2019-05-19T10:41:38.384Z,4.60
2019-05-19T10:44:07.206Z,4.33
2019-05-19T10:46:36.177Z,4.37
2019-05-19T10:49:04.934Z,4.43
2019-05-19T10:51:33.701Z,4.50
2019-05-19T10:54:02.599Z,4.13
2019-05-19T10:56:31.475Z,5.00
2019-05-19T10:59:00.294Z,4.47
2019-05-19T11:01:29.198Z,4.77
2019-05-19T11:03:58.056Z,4.43
2019-05-19T11:06:26.816Z,4.30
2019-05-19T11:08:55.694Z,4.10
2019-05-19T11:11:24.520Z,5.07
2019-05-19T11:13:53.298Z,4.97
2019-05-19T11:16:22.246Z,4.33
2019-05-19T11:18:51.137Z,4.73
2019-05-19T11:21:20.001Z,4.80
2019-05-19T11:23:48.984Z,4.83
2019-05-19T11:26:17.769Z,4.73
2019-05-19T11:28:46.520Z,5.40
2019-05-19T11:31:15.417Z,5.60
2019-05-19T11:33:44.237Z,4.63
2019-05-19T11:36:13.050Z,5.13
2019-05-19T11:38:41.897Z,5.13
2019-05-19T11:41:10.709Z,4.67
2019-05-19T11:43:39.591Z,5.27
2019-05-19T11:46:08.469Z,4.67
2019-05-19T11:48:37.215Z,5.30
2019-05-19T11:51:06.081Z,6.07
2019-05-19T11:53:35.006Z,5.33
2019-05-19T11:56:07.121Z,5.97
2019-05-19T11:58:34.190Z,6.03
2019-05-19T12:01:03.100Z,5.97
2019-05-19T12:03:31.943Z,5.80
2019-05-19T12:06:00.795Z,6.17
2019-05-19T12:08:31.156Z,5.53
2019-05-19T12:10:59.951Z,6.03
2019-05-19T12:13:28.746Z,6.00
2019-05-19T12:15:58.344Z,5.67
2019-05-19T12:18:27.170Z,5.63
2019-05-19T12:20:56.039Z,5.67
2019-05-19T12:23:24.853Z,5.27
2019-05-19T12:25:53.709Z,5.50
2019-05-19T12:28:22.594Z,5.33
2019-05-19T12:30:51.423Z,5.37
2019-05-19T12:33:20.320Z,5.67
2019-05-19T12:35:49.164Z,5.80
2019-05-19T12:38:19.261Z,5.23
2019-05-19T12:40:48.101Z,5.43
2019-05-19T12:43:16.897Z,5.67
2019-05-19T12:45:45.842Z,6.13
2019-05-19T12:48:14.676Z,5.07
2019-05-19T12:50:43.548Z,6.27
2019-05-19T12:53:12.425Z,6.50
2019-05-19T12:55:41.277Z,6.07
2019-05-19T12:58:10.049Z,6.10
2019-05-19T13:00:39.012Z,5.63
2019-05-19T13:03:07.835Z,5.93
2019-05-19T13:05:36.724Z,6.00
2019-05-19T13:08:05.568Z,6.70
2019-05-19T13:10:42.404Z,6.47
2019-05-19T13:13:11.584Z,6.53
2019-05-19T13:15:40.529Z,6.60
2019-05-19T13:18:09.347Z,6.17
2019-05-19T13:20:38.267Z,5.83
2019-05-19T13:23:07.049Z,6.27
2019-05-19T13:25:36.065Z,6.70
2019-05-19T13:28:05.520Z,6.30
2019-05-19T13:30:34.457Z,6.80
2019-05-19T13:33:03.513Z,6.17
2019-05-19T13:35:32.440Z,5.60
2019-05-19T13:38:01.289Z,5.67
2019-05-19T13:40:31.678Z,5.90
2019-05-19T13:43:01.995Z,6.03
2019-05-19T13:45:40.341Z,6.17
2019-05-19T13:48:14.559Z,5.83
2019-05-19T13:50:45.876Z,6.23
2019-05-19T13:53:14.648Z,5.10
2019-05-19T13:55:43.514Z,5.33
2019-05-19T13:58:12.391Z,5.17
2019-05-19T14:00:41.180Z,4.37
2019-05-19T14:03:10.085Z,5.57
2019-05-19T14:05:38.962Z,5.47
2019-05-19T14:08:09.254Z,5.13
2019-05-19T14:10:38.164Z,5.40
2019-05-19T14:13:06.910Z,5.53
2019-05-19T14:15:35.712Z,5.30
2019-05-19T14:18:04.509Z,4.97
2019-05-19T14:20:33.288Z,4.70
2019-05-19T14:23:02.116Z,5.27
2019-05-19T14:25:39.111Z,5.40
2019-05-19T14:28:07.880Z,5.33
2019-05-19T14:30:36.719Z,4.87
2019-05-19T14:33:07.689Z,6.27
2019-05-19T14:35:36.516Z,5.77
2019-05-19T14:38:05.370Z,6.03
2019-05-19T14:40:34.182Z,6.83
2019-05-19T14:43:04.142Z,6.47
2019-05-19T14:45:33.152Z,5.80
2019-05-19T14:48:02.027Z,6.77
2019-05-19T14:50:30.842Z,7.70
2019-05-19T14:52:59.649Z,7.27
2019-05-19T14:55:28.545Z,6.73
2019-05-19T14:57:57.351Z,7.60
2019-05-19T15:00:26.132Z,7.27
2019-05-19T15:02:54.929Z,7.27
2019-05-19T15:05:23.668Z,6.90
2019-05-19T15:07:52.457Z,7.73
2019-05-19T15:10:21.483Z,7.70
2019-05-19T15:12:50.221Z,8.17
2019-05-19T15:15:19.482Z,7.87
2019-05-19T15:17:48.337Z,7.50
2019-05-19T15:20:17.308Z,7.50
2019-05-19T15:22:46.126Z,7.33
2019-05-19T15:25:15.369Z,7.87
2019-05-19T15:27:57.824Z,6.97
2019-05-19T15:30:14.896Z,8.30
2019-05-19T15:32:43.781Z,7.63
2019-05-19T15:35:13.578Z,7.50
2019-05-19T15:37:42.436Z,8.03
2019-05-19T15:40:11.430Z,7.23
2019-05-19T15:42:40.268Z,7.33
2019-05-19T15:45:10.231Z,7.20
2019-05-19T15:47:39.089Z,6.80
2019-05-19T15:50:09.579Z,7.03
2019-05-19T15:52:38.427Z,6.97
2019-05-19T15:55:07.234Z,6.33
2019-05-19T15:57:35.968Z,5.57
2019-05-19T16:00:07.290Z,6.00
2019-05-19T16:02:36.269Z,5.03
2019-05-19T16:05:07.862Z,5.43
2019-05-19T16:07:36.624Z,5.63
2019-05-19T16:10:09.076Z,4.40
2019-05-19T16:12:37.900Z,5.37
2019-05-19T16:15:07.747Z,5.47
2019-05-19T16:17:36.719Z,5.97
2019-05-19T16:20:09.284Z,5.50
2019-05-19T16:22:38.103Z,6.07
2019-05-19T16:25:07.635Z,5.73
2019-05-19T16:27:36.395Z,5.77
2019-05-19T16:30:07.205Z,6.00
2019-05-19T16:32:36.039Z,5.83
2019-05-19T16:35:06.787Z,5.53
2019-05-19T16:37:35.729Z,6.83
2019-05-19T16:40:05.365Z,7.27
2019-05-19T16:42:34.145Z,6.57
2019-05-19T16:45:02.990Z,6.03
2019-05-19T16:47:32.060Z,6.80
2019-05-19T16:50:00.815Z,7.07
2019-05-19T16:52:30.026Z,5.93
2019-05-19T16:55:16.991Z,6.33
2019-05-19T16:57:52.410Z,6.40
2019-05-19T17:00:21.896Z,6.13
2019-05-19T17:02:50.738Z,7.00
2019-05-19T17:05:19.561Z,6.77
2019-05-19T17:07:48.493Z,7.10
2019-05-19T17:10:18.914Z,6.80
2019-05-19T17:12:47.675Z,7.07
2019-05-19T17:15:16.877Z,6.57
2019-05-19T17:17:45.650Z,6.40
2019-05-19T17:20:15.123Z,7.00
2019-05-19T17:22:43.947Z,6.77
2019-05-19T17:25:12.996Z,6.23
2019-05-19T17:27:42.120Z,6.63
2019-05-19T17:30:18.515Z,6.63
2019-05-19T17:32:47.651Z,6.40
2019-05-19T17:35:16.855Z,5.57
2019-05-19T17:37:45.692Z,6.40
2019-05-19T17:40:14.974Z,6.57
2019-05-19T17:42:43.809Z,6.13
2019-05-19T17:45:12.909Z,5.93
2019-05-19T17:47:41.768Z,6.67
2019-05-19T17:50:10.848Z,6.33
2019-05-19T17:52:39.740Z,6.63
2019-05-19T17:55:08.988Z,6.77
2019-05-19T17:57:38.546Z,6.53
2019-05-19T18:00:10.677Z,7.13
2019-05-19T18:02:39.415Z,6.10
2019-05-19T18:05:08.333Z,6.70
2019-05-19T18:07:37.231Z,6.40
2019-05-19T18:10:07.490Z,6.80
2019-05-19T18:12:36.278Z,6.70
2019-05-19T18:15:06.488Z,6.63
2019-05-19T18:17:35.342Z,6.00
2019-05-19T18:20:08.121Z,5.87
2019-05-19T18:22:37.003Z,6.03
2019-05-19T18:25:06.262Z,6.17
2019-05-19T18:27:35.108Z,6.73
2019-05-19T18:30:04.441Z,6.03
2019-05-19T18:32:33.205Z,5.57
2019-05-19T18:35:02.076Z,5.93
2019-05-19T18:37:31.127Z,6.90
2019-05-19T18:40:00.029Z,5.50
2019-05-19T18:42:28.835Z,5.90
2019-05-19T18:44:57.753Z,5.70
2019-05-19T18:47:26.515Z,5.30
2019-05-19T18:49:55.279Z,5.20
2019-05-19T18:52:24.113Z,5.53
2019-05-19T18:54:52.873Z,5.43
2019-05-19T18:57:21.730Z,5.90
2019-05-19T18:59:50.645Z,4.87
2019-05-19T19:02:19.423Z,5.47
2019-05-19T19:04:48.252Z,5.03
2019-05-19T19:07:17.133Z,5.17
2019-05-19T19:09:45.922Z,4.87
2019-05-19T19:12:16.990Z,5.53
2019-05-19T19:14:45.953Z,5.30
2019-05-19T19:17:14.797Z,4.80
2019-05-19T19:19:43.646Z,4.83
2019-05-19T19:22:12.561Z,5.33
2019-05-19T19:24:41.430Z,5.30
2019-05-19T19:27:10.277Z,4.53
2019-05-19T19:29:39.165Z,4.90
2019-05-19T19:32:08.037Z,5.80
2019-05-19T19:34:36.947Z,4.57
2019-05-19T19:37:05.879Z,4.77
2019-05-19T19:39:34.737Z,5.00
2019-05-19T19:42:03.596Z,5.00
2019-05-19T19:44:32.479Z,4.73
2019-05-19T19:47:01.311Z,6.03
2019-05-19T19:49:33.412Z,6.03
2019-05-19T19:52:02.399Z,5.50
2019-05-19T19:54:32.078Z,5.40
2019-05-19T19:57:00.940Z,6.00
2019-05-19T19:59:29.834Z,5.63
2019-05-19T20:01:58.679Z,5.90
2019-05-19T20:04:27.518Z,5.80
2019-05-19T20:06:56.427Z,5.50
2019-05-19T20:09:25.273Z,6.20
2019-05-19T20:11:54.137Z,6.33
2019-05-19T20:14:23.004Z,6.37
2019-05-19T20:16:51.828Z,6.37
2019-05-19T20:19:21.038Z,6.60
2019-05-19T20:21:49.940Z,6.13
2019-05-19T20:24:18.774Z,6.00
2019-05-19T20:26:47.608Z,6.67
2019-05-19T20:29:16.543Z,6.53
2019-05-19T20:31:45.378Z,6.57
2019-05-19T20:34:14.230Z,6.77
2019-05-19T20:36:43.077Z,6.40
2019-05-19T20:39:11.903Z,6.73
2019-05-19T20:41:40.668Z,7.03
2019-05-19T20:44:09.601Z,5.97
2019-05-19T20:46:38.357Z,6.10
2019-05-19T20:49:07.142Z,7.10
2019-05-19T20:51:35.956Z,6.43
2019-05-19T20:54:04.801Z,6.40
2019-05-19T20:56:33.644Z,6.10
2019-05-19T20:59:02.480Z,6.63
2019-05-19T21:01:31.258Z,6.70
2019-05-19T21:04:00.086Z,6.70
2019-05-19T21:06:28.907Z,6.80
2019-05-19T21:08:57.854Z,6.70
2019-05-19T21:11:26.734Z,7.17
2019-05-19T21:13:55.659Z,6.77
2019-05-19T21:16:24.472Z,8.00
2019-05-19T21:18:53.266Z,7.13
2019-05-19T21:21:22.153Z,7.43
2019-05-19T21:23:51.004Z,7.37
2019-05-19T21:26:19.850Z,7.73
2019-05-19T21:28:48.861Z,8.50
2019-05-19T21:31:17.729Z,8.00
2019-05-19T21:33:46.573Z,8.57
2019-05-19T21:36:15.464Z,7.87
2019-05-19T21:38:44.356Z,7.33
2019-05-19T21:41:13.218Z,8.10
2019-05-19T21:43:41.973Z,8.30
2019-05-19T21:46:10.840Z,7.93
2019-05-19T21:48:39.715Z,9.00
2019-05-19T21:51:08.864Z,9.30
2019-05-19T21:53:37.741Z,8.97
2019-05-19T21:56:06.544Z,8.23
2019-05-19T21:58:35.537Z,8.80
2019-05-19T22:01:04.482Z,9.90
2019-05-19T22:03:33.352Z,9.77
2019-05-19T22:06:02.251Z,11.37
2019-05-19T22:08:31.126Z,10.03
2019-05-19T22:11:00.114Z,10.00
2019-05-19T22:13:29.008Z,10.00
2019-05-19T22:16:11.703Z,10.20
2019-05-19T22:18:28.394Z,10.27
2019-05-19T22:20:57.325Z,11.10
2019-05-19T22:23:26.176Z,10.30
2019-05-19T22:25:55.039Z,10.27
2019-05-19T22:28:23.987Z,9.97
2019-05-19T22:30:52.859Z,9.87
2019-05-19T22:33:21.760Z,10.60
2019-05-19T22:35:50.611Z,11.43
2019-05-19T22:38:19.468Z,11.57
2019-05-19T22:40:48.321Z,11.63
2019-05-19T22:43:17.220Z,10.53
2019-05-19T22:45:46.126Z,10.40
2019-05-19T22:48:15.008Z,11.73
2019-05-19T22:50:43.882Z,10.93
2019-05-19T22:53:12.724Z,11.47
2019-05-19T22:55:41.635Z,11.60
2019-05-19T22:58:10.804Z,11.27
2019-05-19T23:00:39.801Z,11.53
2019-05-19T23:03:08.671Z,11.93
2019-05-19T23:05:37.671Z,12.27
2019-05-19T23:08:06.671Z,11.47
2019-05-19T23:10:35.769Z,10.83
2019-05-19T23:13:04.672Z,11.57
2019-05-19T23:15:33.564Z,10.23
2019-05-19T23:18:02.316Z,11.30
2019-05-19T23:20:31.219Z,12.70
2019-05-19T23:23:00.087Z,11.73
2019-05-19T23:25:28.977Z,11.77
2019-05-19T23:27:57.926Z,11.97
2019-05-19T23:30:26.822Z,11.93
2019-05-19T23:32:55.696Z,11.70
2019-05-19T23:35:24.539Z,11.77
2019-05-19T23:37:53.389Z,11.93
2019-05-19T23:40:24.747Z,11.43
2019-05-19T23:42:53.635Z,13.20
2019-05-19T23:45:22.494Z,12.90
2019-05-19T23:47:51.374Z,10.90
2019-05-19T23:50:20.291Z,12.77
2019-05-19T23:52:49.146Z,12.73
2019-05-19T23:55:18.082Z,13.40
2019-05-19T23:57:47.018Z,12.27
